Time;durP1;ratioP1;P1;durP2;ratioP2;P2;SDS_P1;SDS_P2;PMS_P1;PMS_P2;Temp;Humidity;BMP_temperature;BMP_pressure;BME280_temperature;BME280_humidity;BME280_pressure;Samples;Min_cycle;Max_cycle;Signal;HPM_P1;HPM_P2
2023/06/26 00:05:04;;;;;;;9.60;8.40;;;;;;;14.79;77.38;98840.89;222145;1298;22605;-75
2023/06/26 00:10:12;;;;;;;9.60;7.90;;;;;;;14.72;77.81;98849.91;222299;1302;22565;-75
2023/06/26 00:15:45;;;;;;;12.60;7.90;;;;;;;14.67;78.11;98843.83;222225;1302;22596;-76
2023/06/26 00:20:48;;;;;;;10.40;8.30;;;;;;;14.61;78.20;98841.75;222060;1302;22566;-75
2023/06/26 00:25:54;;;;;;;9.30;7.90;;;;;;;14.54;78.46;98842.77;222166;1301;22602;-76
2023/06/26 00:31:07;;;;;;;10.30;8.40;;;;;;;14.45;78.42;98842.03;222198;1299;22545;-76
2023/06/26 00:36:10;;;;;;;9.00;8.10;;;;;;;14.39;78.94;98840.85;222123;1299;22624;-77
2023/06/26 00:41:22;;;;;;;7.50;6.70;;;;;;;14.34;78.78;98842.88;222210;1302;22592;-76
2023/06/26 00:47:05;;;;;;;;;;;;;;;;;;;;;
2023/06/26 00:53:01;;;;;;;10.80;8.50;;;;;;;14.20;79.31;98841.45;222205;1302;25433;-77
2023/06/26 00:58:04;;;;;;;10.30;7.70;;;;;;;14.13;79.47;98841.63;221949;1286;22588;-76
2023/06/26 01:03:06;;;;;;;9.20;8.20;;;;;;;14.06;79.62;98842.06;222245;1302;22614;-77
2023/06/26 01:08:28;;;;;;;10.80;7.90;;;;;;;13.98;79.79;98844.32;222172;1301;24287;-76
2023/06/26 01:13:31;;;;;;;10.40;8.80;;;;;;;13.88;80.06;98840.63;222190;1302;22612;-76
2023/06/26 01:18:41;;;;;;;11.70;8.20;;;;;;;13.79;80.32;98833.95;222138;1302;22565;-76
2023/06/26 01:24:09;;;;;;;8.80;7.70;;;;;;;13.71;80.34;98830.94;222130;1302;22560;-76
2023/06/26 01:29:28;;;;;;;9.20;8.30;;;;;;;13.65;80.69;98825.45;221983;1303;22630;-76
2023/06/26 01:35:08;;;;;;;9.80;7.10;;;;;;;13.61;80.80;98831.08;222194;1302;22578;-76
2023/06/26 01:40:36;;;;;;;9.00;7.40;;;;;;;13.60;81.06;98824.71;222229;1302;24306;-76
2023/06/26 01:45:48;;;;;;;10.80;7.80;;;;;;;13.59;81.05;98826.05;222029;1302;22592;-76
2023/06/26 01:50:53;;;;;;;9.10;7.70;;;;;;;13.57;81.04;98822.74;222015;1303;22573;-76
2023/06/26 01:56:04;;;;;;;9.30;7.50;;;;;;;13.54;81.05;98823.63;221985;1302;22571;-76
2023/06/26 02:01:19;;;;;;;9.00;7.30;;;;;;;13.49;81.00;98817.41;222001;1302;22618;-76
2023/06/26 02:06:25;;;;;;;8.40;7.10;;;;;;;13.44;81.20;98815.09;222248;1303;23602;-76
2023/06/26 02:11:28;;;;;;;8.40;7.20;;;;;;;13.37;81.12;98813.90;222029;1301;22665;-76
2023/06/26 02:17:08;;;;;;;8.40;7.30;;;;;;;13.31;81.46;98813.17;222063;1302;22557;-76
2023/06/26 02:22:37;;;;;;;8.90;8.00;;;;;;;13.27;81.44;98814.23;222182;1300;22554;-76
2023/06/26 02:27:39;;;;;;;8.70;7.70;;;;;;;13.24;81.73;98812.02;222272;1302;22569;-76
2023/06/26 02:32:42;;;;;;;9.10;7.70;;;;;;;13.22;81.80;98814.02;222014;1301;22569;-75
2023/06/26 02:38:06;;;;;;;9.70;7.80;;;;;;;13.22;81.85;98813.52;222160;1301;24262;-76
2023/06/26 02:43:13;;;;;;;9.40;7.70;;;;;;;13.22;82.02;98815.64;222170;1303;24225;-75
2023/06/26 02:48:37;;;;;;;9.20;8.00;;;;;;;13.21;82.19;98819.44;222019;1303;22561;-76
2023/06/26 02:53:53;;;;;;;10.40;8.20;;;;;;;13.19;82.28;98815.55;221987;1301;22568;-75
2023/06/26 02:58:56;;;;;;;8.80;7.90;;;;;;;13.17;82.28;98816.60;222142;1303;22659;-75
2023/06/26 03:04:32;;;;;;;9.90;8.30;;;;;;;13.18;82.24;98821.14;222247;1302;22572;-75
2023/06/26 03:09:56;;;;;;;9.30;8.20;;;;;;;13.20;82.37;98818.69;222122;1302;25598;-75
2023/06/26 03:15:30;;;;;;;;;;;;;;;;;;;;;
2023/06/26 03:20:33;;;;;;;10.30;7.80;;;;;;;13.33;82.38;98812.80;222130;1302;24270;-76
2023/06/26 03:25:37;;;;;;;10.50;8.10;;;;;;;13.69;82.11;98815.58;222234;1302;22571;-76
2023/06/26 03:31:08;;;;;;;;;;;;;;;;;;;;;
2023/06/26 03:36:23;;;;;;;10.90;7.90;;;;;;;14.58;81.10;98822.45;222111;1296;22577;-75
2023/06/26 03:41:39;;;;;;;;;;;;;;;;;;;;;
2023/06/26 03:46:46;;;;;;;9.30;7.00;;;;;;;15.44;79.66;98818.71;222053;1302;22605;-75
2023/06/26 03:51:54;;;;;;;8.50;7.60;;;;;;;15.85;78.93;98820.82;222202;1302;22615;-76
2023/06/26 03:57:08;;;;;;;8.80;7.60;;;;;;;16.29;78.56;98821.89;222228;1303;22532;-76
2023/06/26 04:02:14;;;;;;;9.50;7.20;;;;;;;16.59;78.12;98825.24;222104;1301;22566;-76
2023/06/26 04:07:29;;;;;;;10.00;7.50;;;;;;;16.85;77.56;98823.52;222064;1302;22559;-75
2023/06/26 04:12:33;;;;;;;8.10;7.10;;;;;;;16.92;77.09;98823.69;222180;1302;22562;-75
2023/06/26 04:17:35;;;;;;;11.00;8.10;;;;;;;16.86;76.76;98820.83;222219;1302;22566;-75
2023/06/26 04:22:41;;;;;;;8.50;7.60;;;;;;;16.72;76.36;98823.12;222342;1299;22575;-75
2023/06/26 04:27:46;;;;;;;8.30;7.40;;;;;;;16.63;76.79;98819.04;222250;1302;23094;-76
2023/06/26 04:32:53;;;;;;;9.90;8.50;;;;;;;16.59;77.24;98816.13;222014;1302;22562;-75
2023/06/26 04:37:56;;;;;;;9.00;7.60;;;;;;;16.65;77.41;98816.23;222025;1302;22627;-75
2023/06/26 04:42:58;;;;;;;10.40;9.30;;;;;;;16.71;77.60;98812.84;222032;1302;22576;-76
2023/06/26 04:48:00;;;;;;;12.40;8.40;;;;;;;16.74;77.38;98813.95;222138;1302;24998;-76
2023/06/26 04:53:04;;;;;;;10.80;8.90;;;;;;;16.80;77.51;98813.15;222241;1302;23348;-76
2023/06/26 04:58:07;;;;;;;9.90;8.90;;;;;;;16.80;77.62;98820.95;222041;1301;25347;-76
2023/06/26 05:03:18;;;;;;;10.20;8.80;;;;;;;16.82;77.84;98819.77;221891;1303;22666;-76
2023/06/26 05:08:23;;;;;;;12.40;10.20;;;;;;;16.87;77.90;98817.33;222103;1303;22670;-76
2023/06/26 05:13:26;;;;;;;10.10;9.00;;;;;;;16.94;78.13;98818.23;222179;1302;22596;-76
2023/06/26 05:18:28;;;;;;;11.00;8.90;;;;;;;17.05;78.42;98819.69;222131;1301;22579;-76
2023/06/26 05:23:36;;;;;;;9.60;8.60;;;;;;;17.17;78.35;98814.12;222162;1298;22565;-76
2023/06/26 05:28:40;;;;;;;13.10;8.70;;;;;;;17.37;78.61;98808.88;222094;1302;22587;-76
2023/06/26 05:33:44;;;;;;;10.20;8.50;;;;;;;17.54;78.37;98811.65;221996;1301;24263;-74
2023/06/26 05:43:59;;;;;;;11.20;9.20;;;;;;;17.85;78.41;98808.74;222149;1296;22670;-76
2023/06/26 05:49:01;;;;;;;13.70;9.30;;;;;;;18.00;78.03;98810.98;221899;1298;22566;-77
2023/06/26 05:54:06;;;;;;;11.40;9.30;;;;;;;18.19;78.40;98808.34;222198;1295;22569;-73
2023/06/26 05:59:08;;;;;;;12.80;10.00;;;;;;;18.38;78.04;98804.77;221902;1298;22605;-73
2023/06/26 06:04:10;;;;;;;10.50;9.20;;;;;;;18.58;77.85;98805.52;221970;1280;22606;-74
2023/06/26 06:09:27;;;;;;;11.30;8.90;;;;;;;18.76;77.65;98806.15;221531;1292;22609;-73
2023/06/26 06:14:30;;;;;;;11.40;9.30;;;;;;;18.97;77.56;98806.89;221524;1291;142354;-74
2023/06/26 06:19:32;;;;;;;12.20;9.60;;;;;;;19.17;77.17;98806.61;221763;1294;22576;-73
2023/06/26 06:24:44;;;;;;;9.40;8.40;;;;;;;19.36;76.81;98805.52;221519;1288;23156;-74
2023/06/26 06:29:47;;;;;;;10.00;8.50;;;;;;;19.55;76.58;98810.60;221339;1282;22605;-74
2023/06/26 06:34:52;;;;;;;9.20;8.30;;;;;;;19.77;76.37;98810.67;221203;1295;22569;-74
2023/06/26 06:39:54;;;;;;;10.60;9.00;;;;;;;19.98;76.02;98818.52;221536;1279;22583;-74
2023/06/26 06:44:56;;;;;;;9.90;8.50;;;;;;;20.20;75.56;98814.36;221314;1283;22562;-73
2023/06/26 06:50:03;;;;;;;10.80;8.10;;;;;;;20.40;75.20;98814.89;221326;1288;22616;-74
2023/06/26 06:55:08;;;;;;;9.10;7.80;;;;;;;20.60;74.73;98812.88;221978;1288;24667;-74
2023/06/26 07:00:19;;;;;;;17.60;8.50;;;;;;;20.74;74.25;98813.19;221531;1289;23106;-74
2023/06/26 07:05:24;;;;;;;8.40;7.50;;;;;;;20.90;73.88;98813.13;221804;1279;22667;-74
2023/06/26 07:10:36;;;;;;;10.70;8.50;;;;;;;21.10;73.31;98811.00;221806;1287;22629;-73
2023/06/26 07:15:41;;;;;;;8.30;7.40;;;;;;;21.27;72.75;98804.98;221661;1279;22582;-74
2023/06/26 07:20:43;;;;;;;18.00;8.50;;;;;;;21.48;72.46;98807.36;221758;1301;23105;-73
2023/06/26 07:25:46;;;;;;;7.90;7.10;;;;;;;21.65;71.73;98809.95;221748;1295;22573;-74
2023/06/26 07:30:49;;;;;;;11.40;7.60;;;;;;;21.83;71.51;98807.59;221727;1293;24279;-74
2023/06/26 07:35:51;;;;;;;9.00;7.00;;;;;;;22.09;71.19;98807.01;221375;1292;22556;-73
2023/06/26 07:40:58;;;;;;;7.60;6.90;;;;;;;22.30;70.60;98809.58;221724;1279;22708;-73
2023/06/26 07:46:01;;;;;;;8.20;6.80;;;;;;;22.49;69.46;98810.35;221737;1282;22618;-73
2023/06/26 07:51:03;;;;;;;7.40;6.60;;;;;;;22.66;68.78;98808.46;221831;1279;22561;-74
2023/06/26 07:56:05;;;;;;;6.40;5.80;;;;;;;22.79;67.86;98806.77;221762;1298;26262;-74
2023/06/26 08:01:07;;;;;;;9.10;6.60;;;;;;;22.97;66.73;98808.77;221518;1296;23164;-74
2023/06/26 08:06:10;;;;;;;7.00;6.40;;;;;;;23.13;66.45;98809.59;221631;1298;22597;-74
2023/06/26 08:11:14;;;;;;;7.20;6.30;;;;;;;23.22;65.43;98800.69;221699;1295;25307;-74
2023/06/26 08:16:32;;;;;;;6.10;5.50;;;;;;;23.28;64.84;98798.10;221821;1301;24468;-74
2023/06/26 08:21:34;;;;;;;6.90;6.20;;;;;;;23.51;65.23;98799.23;221732;1298;22583;-74
2023/06/26 08:26:37;;;;;;;7.70;5.70;;;;;;;23.75;64.54;98798.84;221643;1298;22924;-74
2023/06/26 08:31:40;;;;;;;6.40;5.80;;;;;;;23.96;63.16;98792.96;221861;1295;23066;-75
2023/06/26 08:36:43;;;;;;;6.20;5.60;;;;;;;24.07;62.31;98797.34;221968;1295;22575;-74
2023/06/26 08:41:45;;;;;;;6.90;6.00;;;;;;;24.28;62.29;98796.80;221918;1295;24312;-74
2023/06/26 08:46:47;;;;;;;7.20;6.20;;;;;;;24.59;61.95;98793.09;221721;1297;22565;-74
2023/06/26 08:51:56;;;;;;;6.00;5.50;;;;;;;24.85;60.53;98794.23;221776;1301;22579;-73
2023/06/26 08:56:59;;;;;;;6.50;5.90;;;;;;;25.04;59.30;98793.77;221864;1300;22606;-73
2023/06/26 09:02:04;;;;;;;6.10;5.30;;;;;;;25.12;58.10;98791.90;221643;1287;23700;-74
2023/06/26 09:07:09;;;;;;;5.70;5.10;;;;;;;25.32;57.79;98785.20;221782;1283;22521;-73
2023/06/26 09:12:13;;;;;;;5.30;4.90;;;;;;;25.52;56.12;98783.48;221738;1279;22576;-73
2023/06/26 09:17:15;;;;;;;12.60;4.90;;;;;;;25.71;55.28;98784.69;221686;1300;22596;-73
2023/06/26 09:22:17;;;;;;;5.30;4.90;;;;;;;25.96;54.79;98773.48;221500;1282;22561;-74
2023/06/26 09:27:20;;;;;;;5.20;4.70;;;;;;;26.30;54.71;98773.08;221651;1300;25265;-72
2023/06/26 09:32:24;;;;;;;5.80;4.80;;;;;;;26.56;53.93;98773.23;221713;1289;22598;-74
2023/06/26 09:37:26;;;;;;;5.40;5.00;;;;;;;26.52;51.79;98771.23;221780;1295;22575;-73
2023/06/26 09:42:29;;;;;;;5.30;4.80;;;;;;;26.17;51.79;98773.84;221794;1295;25319;-73
2023/06/26 09:47:34;;;;;;;5.90;4.50;;;;;;;26.11;51.70;98770.11;221863;1301;22712;-73
2023/06/26 09:52:36;;;;;;;5.00;4.60;;;;;;;26.20;51.77;98766.42;221729;1301;22674;-75
2023/06/26 09:57:43;;;;;;;5.70;5.10;;;;;;;26.40;52.26;98761.47;221871;1297;23033;-73
2023/06/26 10:02:48;;;;;;;5.10;4.70;;;;;;;26.60;51.69;98756.69;221870;1301;22570;-73
2023/06/26 10:07:52;;;;;;;5.10;4.60;;;;;;;26.77;51.38;98753.84;221955;1287;22561;-74
2023/06/26 10:13:01;;;;;;;5.00;4.50;;;;;;;26.95;50.86;98750.59;222126;1301;22692;-73
2023/06/26 10:18:04;;;;;;;6.00;5.20;;;;;;;27.13;50.21;98742.50;221933;1298;22576;-74
2023/06/26 10:23:08;;;;;;;5.40;5.00;;;;;;;27.24;49.92;98738.25;221915;1298;22600;-73
2023/06/26 10:28:15;;;;;;;5.10;4.60;;;;;;;27.24;49.65;98731.58;221864;1282;22594;-74
2023/06/26 10:33:18;;;;;;;5.90;5.20;;;;;;;27.20;48.92;98724.52;221857;1295;24307;-74
2023/06/26 10:38:20;;;;;;;5.80;4.90;;;;;;;27.16;48.20;98723.35;221620;1289;22643;-73
2023/06/26 10:43:29;;;;;;;4.70;4.30;;;;;;;27.16;48.37;98719.71;221973;1287;22585;-74
2023/06/26 10:48:31;;;;;;;8.20;4.90;;;;;;;27.21;48.17;98712.63;221795;1284;22602;-74
2023/06/26 10:53:35;;;;;;;5.20;4.70;;;;;;;27.21;48.09;98705.90;221746;1295;22563;-74
2023/06/26 10:58:39;;;;;;;6.90;5.00;;;;;;;27.23;47.76;98708.25;221889;1288;22573;-74
2023/06/26 11:03:46;;;;;;;5.10;4.70;;;;;;;27.34;47.82;98704.09;221986;1295;22565;-74
2023/06/26 11:08:54;;;;;;;5.10;4.70;;;;;;;27.42;47.05;98702.66;222099;1282;22604;-73
2023/06/26 11:13:56;;;;;;;5.20;4.70;;;;;;;27.43;46.70;98700.31;221872;1299;22696;-74
2023/06/26 11:18:59;;;;;;;5.20;4.70;;;;;;;27.50;46.71;98691.27;221845;1279;22603;-73
2023/06/26 11:24:04;;;;;;;5.20;4.70;;;;;;;27.59;46.82;98691.98;221853;1279;22580;-74
2023/06/26 11:29:08;;;;;;;4.90;4.40;;;;;;;27.67;46.50;98691.17;221690;1296;22545;-74
2023/06/26 11:34:13;;;;;;;4.50;4.10;;;;;;;27.73;46.20;98688.94;221840;1295;23393;-74
2023/06/26 11:39:17;;;;;;;5.20;4.80;;;;;;;27.78;45.80;98686.02;221695;1295;23045;-74
2023/06/26 11:44:21;;;;;;;9.20;5.20;;;;;;;27.74;45.40;98682.39;221817;1294;22588;-73
2023/06/26 11:49:26;;;;;;;4.80;4.50;;;;;;;27.65;45.02;98671.98;221540;1295;22558;-75
2023/06/26 11:54:28;;;;;;;4.80;4.40;;;;;;;27.81;45.97;98670.31;221746;1279;22576;-74
2023/06/26 11:59:35;;;;;;;5.00;4.10;;;;;;;27.98;45.86;98671.07;221860;1295;24267;-74
2023/06/26 12:04:41;;;;;;;5.00;4.70;;;;;;;28.14;45.45;98666.73;221514;1298;22569;-75
2023/06/26 12:09:46;;;;;;;4.60;4.20;;;;;;;28.14;44.31;98664.93;221512;1298;25291;-74
2023/06/26 12:14:48;;;;;;;5.20;4.40;;;;;;;28.03;43.80;98662.27;221604;1301;22569;-74
2023/06/26 12:19:50;;;;;;;5.10;4.50;;;;;;;27.92;43.84;98655.50;221759;1295;22584;-74
2023/06/26 12:24:56;;;;;;;4.80;4.40;;;;;;;27.97;44.30;98646.50;221394;1298;22573;-74
2023/06/26 12:29:58;;;;;;;4.90;4.40;;;;;;;28.06;43.83;98644.83;221702;1289;23326;-74
2023/06/26 12:35:00;;;;;;;5.00;4.60;;;;;;;28.05;43.94;98644.73;221848;1285;22579;-74
2023/06/26 12:40:05;;;;;;;5.00;4.60;;;;;;;28.12;44.30;98644.20;221939;1300;22576;-74
2023/06/26 12:45:13;;;;;;;5.00;4.60;;;;;;;28.20;44.14;98639.05;221887;1298;22948;-75
2023/06/26 12:50:38;;;;;;;6.20;4.10;;;;;;;28.22;43.98;98636.45;221617;1296;22583;-74
2023/06/26 12:55:43;;;;;;;4.70;4.30;;;;;;;28.29;43.76;98632.72;221726;1287;23665;-74
2023/06/26 13:00:45;;;;;;;4.50;4.20;;;;;;;28.30;43.51;98629.96;221768;1279;22595;-75
2023/06/26 13:05:47;;;;;;;4.80;4.30;;;;;;;28.32;43.67;98630.31;221546;1294;22628;-75
2023/06/26 13:10:49;;;;;;;4.80;4.10;;;;;;;28.38;43.73;98628.30;221534;1298;22601;-75
2023/06/26 13:15:51;;;;;;;4.80;4.30;;;;;;;28.42;43.63;98625.45;221524;1299;22938;-75
2023/06/26 13:20:53;;;;;;;5.00;4.50;;;;;;;28.43;43.59;98620.25;221917;1298;22811;-75
2023/06/26 13:25:55;;;;;;;7.40;4.40;;;;;;;28.50;43.70;98613.74;221685;1288;22585;-75
2023/06/26 13:30:57;;;;;;;10.60;4.50;;;;;;;28.58;43.62;98612.08;221853;1295;22570;-74
2023/06/26 13:36:00;;;;;;;4.90;4.50;;;;;;;28.63;43.16;98606.38;221878;1287;22565;-74
2023/06/26 13:41:02;;;;;;;4.40;4.10;;;;;;;28.47;42.38;98606.02;221700;1289;22665;-73
2023/06/26 13:46:04;;;;;;;5.20;4.70;;;;;;;28.34;42.78;98599.81;221597;1298;25971;-73
2023/06/26 13:51:06;;;;;;;5.30;4.50;;;;;;;28.10;42.97;98595.58;221772;1300;25284;-73
2023/06/26 13:56:16;;;;;;;4.90;4.50;;;;;;;28.02;43.68;98590.61;221855;1292;22594;-73
2023/06/26 14:01:27;;;;;;;4.50;4.20;;;;;;;28.13;43.92;98580.83;221668;1295;22705;-76
2023/06/26 14:06:30;;;;;;;6.30;5.40;;;;;;;28.35;44.09;98570.11;221477;1292;22578;-74
2023/06/26 14:11:32;;;;;;;28.90;7.30;;;;;;;28.54;44.10;98557.96;221499;1301;22593;-75
2023/06/26 14:16:34;;;;;;;5.90;5.30;;;;;;;28.70;43.55;98559.32;221710;1301;22571;-75
2023/06/26 14:21:36;;;;;;;5.80;5.30;;;;;;;28.73;43.73;98560.83;222065;1302;22572;-75
2023/06/26 14:26:42;;;;;;;20.60;6.20;;;;;;;28.69;43.91;98549.55;222142;1301;22564;-74
2023/06/26 14:31:44;;;;;;;6.00;5.20;;;;;;;28.72;44.19;98542.34;222059;1300;22565;-75
2023/06/26 14:36:46;;;;;;;7.30;5.10;;;;;;;28.84;44.44;98537.49;222066;1301;22628;-74
2023/06/26 14:41:48;;;;;;;5.80;5.20;;;;;;;28.86;44.35;98533.02;222186;1299;22569;-75
2023/06/26 14:46:51;;;;;;;5.40;5.00;;;;;;;28.93;44.51;98525.00;222216;1300;22572;-75
2023/06/26 14:51:53;;;;;;;6.70;5.10;;;;;;;28.98;44.45;98519.47;222210;1301;22570;-75
2023/06/26 14:56:55;;;;;;;6.70;5.60;;;;;;;29.05;44.25;98512.44;221993;1302;22983;-75
2023/06/26 15:01:57;;;;;;;7.50;5.30;;;;;;;29.02;43.79;98506.69;222224;1292;22573;-74
2023/06/26 15:07:00;;;;;;;5.60;5.10;;;;;;;29.02;43.87;98506.05;222276;1301;22577;-75
2023/06/26 15:12:02;;;;;;;5.30;4.80;;;;;;;28.93;43.52;98496.52;221991;1301;22573;-75
2023/06/26 15:17:08;;;;;;;5.40;5.00;;;;;;;28.85;43.47;98482.52;222215;1301;22607;-75
2023/06/26 15:22:10;;;;;;;4.80;4.40;;;;;;;28.85;43.76;98481.86;222165;1301;22549;-74
2023/06/26 15:27:13;;;;;;;5.60;4.80;;;;;;;28.75;43.58;98477.06;222174;1298;22584;-75
2023/06/26 15:32:16;;;;;;;5.20;4.70;;;;;;;28.72;43.82;98469.46;222279;1300;22565;-75
2023/06/26 15:37:18;;;;;;;4.90;4.50;;;;;;;28.82;44.21;98465.20;222284;1299;22644;-76
2023/06/26 15:42:20;;;;;;;4.60;4.20;;;;;;;28.87;43.50;98465.39;222202;1298;22572;-75
2023/06/26 15:47:22;;;;;;;4.60;4.20;;;;;;;28.81;43.31;98459.30;222206;1301;22734;-74
2023/06/26 15:52:24;;;;;;;4.70;4.30;;;;;;;28.80;43.72;98456.71;222252;1295;22604;-74
2023/06/26 15:57:26;;;;;;;4.40;4.00;;;;;;;28.79;43.46;98449.45;222046;1302;22576;-74
2023/06/26 16:02:29;;;;;;;3.90;3.60;;;;;;;28.76;43.51;98440.59;221944;1302;22566;-74
2023/06/26 16:07:31;;;;;;;4.30;4.00;;;;;;;28.74;43.29;98436.14;222022;1301;22593;-74
2023/06/26 16:12:53;;;;;;;4.80;4.20;;;;;;;28.71;43.39;98427.29;222137;1301;22588;-74
2023/06/26 16:17:55;;;;;;;4.50;4.10;;;;;;;28.69;43.09;98419.02;222096;1301;25292;-74
2023/06/26 16:22:57;;;;;;;4.10;3.80;;;;;;;28.60;43.24;98409.83;222208;1300;22600;-74
2023/06/26 16:27:59;;;;;;;4.70;4.30;;;;;;;28.49;43.34;98407.86;222165;1302;22609;-75
2023/06/26 16:33:01;;;;;;;4.30;3.90;;;;;;;28.42;43.79;98405.91;222054;1302;22593;-74
2023/06/26 16:38:06;;;;;;;4.50;3.90;;;;;;;28.41;43.71;98410.45;222337;1298;22576;-75
2023/06/26 16:43:08;;;;;;;4.10;3.80;;;;;;;28.35;43.29;98410.79;222230;1301;25262;-75
2023/06/26 16:48:10;;;;;;;5.50;5.10;;;;;;;28.26;43.48;98407.19;222213;1303;22621;-74
2023/06/26 16:53:13;;;;;;;4.10;3.70;;;;;;;28.22;43.89;98406.95;222209;1300;22570;-74
2023/06/26 16:58:15;;;;;;;3.80;3.50;;;;;;;28.21;44.23;98406.87;222169;1297;22573;-74
2023/06/26 17:03:20;;;;;;;3.70;3.50;;;;;;;28.25;44.09;98405.14;222170;1300;23645;-74
2023/06/26 17:08:23;;;;;;;3.60;3.30;;;;;;;28.19;44.33;98405.93;222154;1301;25421;-74
2023/06/26 17:13:25;;;;;;;4.00;3.60;;;;;;;28.55;44.46;98401.95;222225;1300;22565;-74
2023/06/26 17:18:27;;;;;;;4.60;4.20;;;;;;;29.75;43.94;98400.30;222135;1298;22986;-75
2023/06/26 17:23:30;;;;;;;4.10;3.80;;;;;;;30.83;43.01;98398.77;222198;1301;22564;-75
2023/06/26 17:28:32;;;;;;;3.60;3.30;;;;;;;31.93;42.21;98399.27;222230;1301;22636;-74
2023/06/26 17:33:34;;;;;;;3.90;3.60;;;;;;;32.68;41.41;98398.03;222134;1298;22606;-74
2023/06/26 17:38:37;;;;;;;3.90;3.70;;;;;;;33.38;40.91;98400.58;222130;1301;22649;-75
2023/06/26 17:43:39;;;;;;;3.90;3.70;;;;;;;33.77;40.34;98398.88;222166;1301;22695;-75
2023/06/26 17:48:42;;;;;;;4.10;3.60;;;;;;;34.04;39.74;98400.41;222149;1301;22611;-74
2023/06/26 17:53:44;;;;;;;4.40;4.10;;;;;;;33.77;39.42;98395.75;222216;1301;24260;-74
2023/06/26 17:58:47;;;;;;;4.20;3.80;;;;;;;32.50;39.48;98393.92;222225;1301;22573;-74
2023/06/26 18:03:49;;;;;;;4.00;3.70;;;;;;;31.38;40.39;98392.44;222015;1303;22582;-74
2023/06/26 18:08:52;;;;;;;4.50;4.10;;;;;;;30.28;41.27;98388.33;222285;1295;22583;-75
2023/06/26 18:13:54;;;;;;;4.50;4.10;;;;;;;29.35;42.49;98384.83;222236;1295;22607;-75
2023/06/26 18:19:00;;;;;;;4.80;4.30;;;;;;;28.57;43.20;98383.52;222081;1302;135816;-75
2023/06/26 18:24:03;;;;;;;4.70;4.30;;;;;;;27.89;44.18;98382.35;222199;1300;22577;-74
2023/06/26 18:29:08;;;;;;;5.20;4.30;;;;;;;27.40;44.92;98375.22;222208;1301;22558;-74
2023/06/26 18:34:10;;;;;;;4.90;4.50;;;;;;;27.01;45.66;98378.29;222077;1298;22561;-74
2023/06/26 18:39:13;;;;;;;4.80;4.40;;;;;;;26.61;46.04;98376.40;222205;1302;22576;-74
2023/06/26 18:44:15;;;;;;;4.90;4.40;;;;;;;26.21;46.61;98377.76;222180;1301;22611;-74
2023/06/26 18:49:17;;;;;;;5.10;4.60;;;;;;;25.86;47.19;98374.98;222271;1301;22674;-74
2023/06/26 18:54:20;;;;;;;6.00;4.60;;;;;;;25.51;48.00;98364.94;222301;1292;22599;-74
2023/06/26 18:59:23;;;;;;;4.80;4.40;;;;;;;25.20;48.65;98360.87;222112;1302;22569;-74
2023/06/26 19:04:26;;;;;;;5.70;4.90;;;;;;;24.95;49.13;98363.91;222229;1301;22574;-74
2023/06/26 19:09:29;;;;;;;6.60;5.90;;;;;;;24.72;49.68;98360.64;222202;1302;22605;-74
2023/06/26 19:14:31;;;;;;;6.90;6.20;;;;;;;24.46;50.53;98357.61;222187;1301;22650;-75
2023/06/26 19:19:34;;;;;;;7.40;6.00;;;;;;;24.21;51.40;98355.23;222269;1299;22573;-73
2023/06/26 19:24:43;;;;;;;7.80;5.40;;;;;;;23.96;52.11;98351.66;222228;1302;25258;-73
2023/06/26 19:29:48;;;;;;;7.30;6.20;;;;;;;23.71;52.43;98351.56;222233;1301;22590;-74
2023/06/26 19:34:53;;;;;;;6.80;5.80;;;;;;;23.49;52.86;98356.16;222124;1302;22569;-74
2023/06/26 19:39:55;;;;;;;6.40;5.60;;;;;;;23.28;53.29;98352.81;222293;1298;25055;-74
2023/06/26 19:44:58;;;;;;;6.00;5.30;;;;;;;23.10;53.66;98349.38;222212;1299;23408;-75
2023/06/26 19:50:01;;;;;;;8.80;5.70;;;;;;;22.92;53.96;98351.36;221939;1302;26820;-74
2023/06/26 19:55:04;;;;;;;6.70;5.90;;;;;;;22.75;54.28;98342.51;222307;1301;25303;-74
2023/06/26 20:00:08;;;;;;;7.20;6.00;;;;;;;22.58;54.67;98333.48;222232;1302;22553;-74
2023/06/26 20:05:13;;;;;;;8.40;6.20;;;;;;;22.40;55.10;98330.59;222166;1302;22569;-74
2023/06/26 20:10:18;;;;;;;6.40;5.80;;;;;;;22.26;55.54;98326.17;222242;1301;22576;-74
2023/06/26 20:15:20;;;;;;;7.10;5.90;;;;;;;22.14;55.82;98327.77;222281;1298;22552;-74
2023/06/26 20:20:22;;;;;;;6.40;5.70;;;;;;;22.01;55.99;98335.11;222039;1301;22602;-74
2023/06/26 20:25:30;;;;;;;8.00;5.60;;;;;;;21.90;56.35;98330.65;222239;1301;22575;-73
2023/06/26 20:30:32;;;;;;;7.70;5.80;;;;;;;21.77;56.60;98334.77;222177;1302;22552;-74
2023/06/26 20:35:43;;;;;;;7.40;6.50;;;;;;;21.66;56.98;98339.52;222224;1302;22557;-73
2023/06/26 20:40:48;;;;;;;8.30;6.70;;;;;;;21.56;57.14;98331.19;222251;1302;22571;-73
2023/06/26 20:46:42;;;;;;;8.20;6.80;;;;;;;21.44;57.54;98330.71;222212;1302;22595;-73
2023/06/26 20:51:46;;;;;;;8.40;6.40;;;;;;;21.32;57.75;98321.84;222140;1302;25316;-74
2023/06/26 20:56:49;;;;;;;9.40;6.70;;;;;;;21.23;58.18;98327.15;222266;1299;25366;-74
2023/06/26 21:01:51;;;;;;;8.90;6.50;;;;;;;21.14;58.45;98324.75;222022;1299;22607;-74
2023/06/26 21:06:53;;;;;;;8.80;6.90;;;;;;;21.06;58.88;98322.11;222127;1301;22566;-74
2023/06/26 21:12:18;;;;;;;9.80;6.80;;;;;;;20.99;59.02;98315.54;222252;1285;22556;-74
2023/06/26 21:17:41;;;;;;;8.00;6.60;;;;;;;20.91;59.25;98304.74;222266;1303;22575;-74
2023/06/26 21:22:43;;;;;;;7.60;6.50;;;;;;;20.84;59.35;98298.11;222241;1302;22708;-73
2023/06/26 21:27:45;;;;;;;8.70;6.20;;;;;;;20.79;59.44;98298.36;222172;1301;23712;-74
2023/06/26 21:32:52;;;;;;;9.70;6.80;;;;;;;20.76;59.68;98299.63;222185;1302;22604;-73
2023/06/26 21:37:56;;;;;;;7.80;6.00;;;;;;;20.74;59.75;98304.40;222138;1301;22577;-73
2023/06/26 21:42:58;;;;;;;7.50;6.00;;;;;;;20.72;59.88;98298.80;221959;1301;22659;-73
2023/06/26 21:48:00;;;;;;;9.10;6.90;;;;;;;20.74;60.17;98287.96;222162;1301;22575;-73
2023/06/26 21:53:05;;;;;;;8.10;6.00;;;;;;;20.74;60.08;98285.11;222191;1302;22585;-73
2023/06/26 21:58:07;;;;;;;9.20;7.00;;;;;;;20.75;60.38;98276.10;222118;1301;25452;-74
2023/06/26 22:03:19;;;;;;;6.80;6.10;;;;;;;20.74;60.35;98260.52;222212;1302;22629;-73
2023/06/26 22:08:22;;;;;;;8.40;6.40;;;;;;;20.72;60.43;98252.14;222212;1297;22574;-74
2023/06/26 22:13:27;;;;;;;9.30;6.20;;;;;;;20.70;60.54;98250.19;222023;1302;22599;-74
2023/06/26 22:18:29;;;;;;;8.10;6.00;;;;;;;20.69;60.70;98254.33;222042;1302;22651;-74
2023/06/26 22:23:31;;;;;;;7.30;6.20;;;;;;;20.70;60.82;98278.55;222195;1302;22565;-74
2023/06/26 22:28:33;;;;;;;8.50;7.00;;;;;;;20.69;61.29;98360.86;222354;1302;22559;-73
2023/06/26 22:33:36;;;;;;;10.40;6.30;;;;;;;20.51;62.30;98387.74;222053;1302;25548;-73
2023/06/26 22:38:38;;;;;;;8.30;7.00;;;;;;;20.32;62.78;98395.36;222222;1303;22602;-73
2023/06/26 22:43:40;;;;;;;6.60;5.50;;;;;;;20.20;63.75;98402.03;222346;1302;22598;-73
2023/06/26 22:48:42;;;;;;;6.40;5.10;;;;;;;20.13;64.75;98402.10;222051;1301;22572;-73
2023/06/26 22:53:45;;;;;;;4.60;4.00;;;;;;;20.06;65.58;98390.84;222209;1302;22649;-73
2023/06/26 22:58:47;;;;;;;4.20;3.60;;;;;;;19.93;66.73;98378.15;222318;1302;22724;-73
2023/06/26 23:03:58;;;;;;;5.30;3.30;;;;;;;19.71;67.85;98384.65;222219;1302;22566;-73
2023/06/26 23:09:03;;;;;;;3.80;3.40;;;;;;;19.46;68.99;98398.85;222217;1302;24362;-73
2023/06/26 23:14:15;;;;;;;6.90;3.90;;;;;;;19.18;70.77;98403.29;222228;1302;22606;-73
2023/06/26 23:19:30;;;;;;;4.30;3.90;;;;;;;18.86;71.95;98410.75;222312;1303;22573;-73
2023/06/26 23:24:47;;;;;;;7.20;4.30;;;;;;;18.54;72.86;98393.27;222309;1302;22567;-74
2023/06/26 23:29:53;;;;;;;5.90;4.20;;;;;;;18.33;73.74;98381.02;222239;1303;22568;-74
2023/06/26 23:34:58;;;;;;;6.20;4.80;;;;;;;18.18;74.53;98366.26;222073;1302;22653;-73
2023/06/26 23:40:00;;;;;;;4.90;4.50;;;;;;;18.06;75.20;98366.36;222192;1301;22560;-73
2023/06/26 23:45:15;;;;;;;5.40;4.60;;;;;;;17.94;75.82;98382.61;221986;1303;22967;-74
2023/06/26 23:50:32;;;;;;;5.20;4.30;;;;;;;17.88;76.73;98385.45;222085;1302;22670;-74
2023/06/26 23:55:40;;;;;;;5.00;4.50;;;;;;;17.81;77.18;98387.06;222214;1302;22552;-74
